createdAt,value
2022-10-05T00:00:20.810Z,5.80
2022-10-05T00:03:11.931Z,5.80
2022-10-05T00:05:39.130Z,5.75
2022-10-05T00:08:19.043Z,5.72
2022-10-05T00:10:46.810Z,5.71
2022-10-05T00:13:22.209Z,5.65
2022-10-05T00:15:50.197Z,5.61
2022-10-05T00:18:21.892Z,5.65
2022-10-05T00:20:49.511Z,5.64
2022-10-05T00:23:30.191Z,5.59
2022-10-05T00:26:23.048Z,5.57
2022-10-05T00:28:50.969Z,5.56
2022-10-05T00:31:26.446Z,5.65
2022-10-05T00:33:55.132Z,5.65
2022-10-05T00:36:22.602Z,5.59
2022-10-05T00:38:49.685Z,5.55
2022-10-05T00:41:31.873Z,5.52
2022-10-05T00:44:08.550Z,5.50
2022-10-05T00:47:06.619Z,5.51
2022-10-05T00:49:33.789Z,5.49
2022-10-05T00:52:38.386Z,5.46
2022-10-05T00:55:39.229Z,5.45
2022-10-05T00:58:24.410Z,5.45
2022-10-05T01:01:07.775Z,5.40
2022-10-05T01:03:39.786Z,5.44
2022-10-05T01:06:11.959Z,5.50
2022-10-05T01:09:17.962Z,5.45
2022-10-05T01:11:54.762Z,5.44
2022-10-05T01:14:50.481Z,5.48
2022-10-05T01:17:38.885Z,5.46
2022-10-05T01:20:20.044Z,5.42
2022-10-05T01:23:15.253Z,5.41
2022-10-05T01:26:31.910Z,5.44
2022-10-05T01:29:20.948Z,5.46
2022-10-05T01:32:05.558Z,5.40
2022-10-05T01:34:40.876Z,5.38
2022-10-05T01:37:24.840Z,5.34
2022-10-05T01:40:05.246Z,5.29
2022-10-05T01:43:09.985Z,5.28
2022-10-05T01:46:09.817Z,5.24
2022-10-05T01:49:21.875Z,5.25
2022-10-05T01:51:58.054Z,5.28
2022-10-05T01:55:02.561Z,5.26
2022-10-05T01:57:51.604Z,5.23
2022-10-05T02:00:19.976Z,5.24
2022-10-05T02:03:14.193Z,5.20
2022-10-05T02:05:53.392Z,5.24
2022-10-05T02:08:32.411Z,5.17
2022-10-05T02:11:03.708Z,5.21
2022-10-05T02:13:35.318Z,5.22
2022-10-05T02:16:14.942Z,5.16
2022-10-05T02:19:01.962Z,5.11
2022-10-05T02:21:33.468Z,5.15
2022-10-05T02:24:07.011Z,5.09
2022-10-05T02:26:36.821Z,5.05
2022-10-05T02:29:08.199Z,5.01
2022-10-05T02:31:45.776Z,5.01
2022-10-05T02:34:40.890Z,5.06
2022-10-05T02:37:34.896Z,5.08
2022-10-05T02:40:05.289Z,5.08
2022-10-05T02:42:56.099Z,5.08
2022-10-05T02:45:42.742Z,5.16
2022-10-05T02:48:31.332Z,5.20
2022-10-05T02:51:07.072Z,5.27
2022-10-05T02:53:52.281Z,5.21
2022-10-05T02:56:22.532Z,5.11
2022-10-05T02:59:00.065Z,5.06
2022-10-05T03:01:34.508Z,5.11
2022-10-05T03:04:24.728Z,5.10
2022-10-05T03:07:26.017Z,5.05
2022-10-05T03:10:01.372Z,5.03
2022-10-05T03:12:51.587Z,4.96
2022-10-05T03:15:42.787Z,4.94
2022-10-05T03:18:30.748Z,4.93
2022-10-05T03:21:22.024Z,4.93
2022-10-05T03:24:17.509Z,4.93
2022-10-05T03:26:53.660Z,4.90
2022-10-05T03:29:38.584Z,4.94
2022-10-05T03:32:25.613Z,4.91
2022-10-05T03:35:17.099Z,4.88
2022-10-05T03:37:51.828Z,4.84
2022-10-05T03:40:34.951Z,4.88
2022-10-05T03:43:35.685Z,4.98
2022-10-05T03:46:30.444Z,5.03
2022-10-05T03:49:21.662Z,5.03
2022-10-05T03:51:59.072Z,4.99
2022-10-05T03:54:33.648Z,4.94
2022-10-05T03:57:08.708Z,4.96
2022-10-05T03:59:44.999Z,4.91
2022-10-05T04:03:00.248Z,4.98
2022-10-05T04:05:33.595Z,4.96
2022-10-05T04:08:10.093Z,4.90
2022-10-05T04:10:52.856Z,4.94
2022-10-05T04:13:27.384Z,4.96
2022-10-05T04:16:02.152Z,4.89
2022-10-05T04:18:48.193Z,4.87
2022-10-05T04:21:28.546Z,4.91
2022-10-05T04:24:34.344Z,5.02
2022-10-05T04:27:13.646Z,5.03
2022-10-05T04:30:02.243Z,5.07
2022-10-05T04:32:39.887Z,5.06
2022-10-05T04:35:39.055Z,5.06
2022-10-05T04:38:18.299Z,5.06
2022-10-05T04:41:06.096Z,5.01
2022-10-05T04:43:54.424Z,5.07
2022-10-05T04:47:05.722Z,5.11
2022-10-05T04:49:59.042Z,5.28
2022-10-05T04:52:32.613Z,5.17
2022-10-05T04:55:06.073Z,5.04
2022-10-05T04:57:58.704Z,5.06
2022-10-05T05:00:35.136Z,5.05
2022-10-05T05:03:50.975Z,5.07
2022-10-05T05:06:43.411Z,5.06
2022-10-05T05:09:43.109Z,5.02
2022-10-05T05:13:04.311Z,4.95
2022-10-05T05:15:43.510Z,4.92
2022-10-05T05:18:35.505Z,4.95
2022-10-05T05:21:36.050Z,4.93
2022-10-05T05:24:03.424Z,4.92
2022-10-05T05:26:56.036Z,5.13
2022-10-05T05:29:42.027Z,5.23
2022-10-05T05:32:09.335Z,5.24
2022-10-05T05:35:07.679Z,5.28
2022-10-05T05:37:54.066Z,5.41
2022-10-05T05:40:47.729Z,5.61
2022-10-05T05:43:57.723Z,6.49
2022-10-05T05:46:51.544Z,7.03
2022-10-05T05:49:31.485Z,7.15
2022-10-05T05:52:03.588Z,7.42
2022-10-05T05:54:44.672Z,7.45
2022-10-05T05:57:19.591Z,7.77
2022-10-05T06:00:05.797Z,8.85
2022-10-05T06:03:13.812Z,8.30
2022-10-05T06:05:47.612Z,7.99
2022-10-05T06:08:33.555Z,7.85
2022-10-05T06:11:31.609Z,8.00
2022-10-05T06:14:04.574Z,8.63
2022-10-05T06:16:40.776Z,10.15
2022-10-05T06:19:12.300Z,11.66
2022-10-05T06:21:48.045Z,13.45
2022-10-05T06:24:25.775Z,15.20
2022-10-05T06:27:26.285Z,16.18
2022-10-05T06:30:03.562Z,16.96
2022-10-05T06:32:35.099Z,16.35
2022-10-05T06:35:17.705Z,17.00
2022-10-05T06:37:48.715Z,18.11
2022-10-05T06:40:31.638Z,18.37
2022-10-05T06:43:08.246Z,18.46
2022-10-05T06:46:13.818Z,17.71
2022-10-05T06:49:21.567Z,17.25
2022-10-05T06:52:21.117Z,18.28
2022-10-05T06:54:57.939Z,19.15
2022-10-05T06:57:51.446Z,20.70
2022-10-05T07:00:25.053Z,20.64
2022-10-05T07:03:10.560Z,20.34
2022-10-05T07:05:57.579Z,19.77
2022-10-05T07:08:39.172Z,19.82
2022-10-05T07:11:12.007Z,19.50
2022-10-05T07:13:59.093Z,19.13
2022-10-05T07:16:36.758Z,20.45
2022-10-05T07:19:29.343Z,21.20
2022-10-05T07:22:21.100Z,21.67
2022-10-05T07:25:06.035Z,22.01
2022-10-05T07:27:42.864Z,22.13
2022-10-05T07:30:13.506Z,23.01
2022-10-05T07:33:09.456Z,23.64
2022-10-05T07:36:35.771Z,23.59
2022-10-05T07:39:17.265Z,23.81
2022-10-05T07:42:05.033Z,23.66
2022-10-05T07:44:43.854Z,24.01
2022-10-05T07:47:23.671Z,23.75
2022-10-05T07:50:02.551Z,23.78
2022-10-05T07:52:40.315Z,22.93
2022-10-05T07:55:20.529Z,22.95
2022-10-05T07:58:13.169Z,21.70
2022-10-05T08:00:47.809Z,20.22
2022-10-05T08:03:28.330Z,20.22
2022-10-05T08:05:57.874Z,20.59
2022-10-05T08:08:36.012Z,20.46
2022-10-05T08:11:13.640Z,19.33
2022-10-05T08:13:50.004Z,18.72
2022-10-05T08:16:18.523Z,18.54
2022-10-05T08:18:59.849Z,18.48
2022-10-05T08:22:02.019Z,18.37
2022-10-05T08:24:44.472Z,18.24
2022-10-05T08:27:49.615Z,18.33
2022-10-05T08:30:17.152Z,18.59
2022-10-05T08:32:59.091Z,18.11
2022-10-05T08:35:44.313Z,17.60
2022-10-05T08:38:24.223Z,17.92
2022-10-05T08:41:11.482Z,17.87
2022-10-05T08:43:44.713Z,17.58
2022-10-05T08:46:14.745Z,17.92
2022-10-05T08:49:00.239Z,17.90
2022-10-05T08:51:49.591Z,17.58
2022-10-05T08:54:39.216Z,17.59
2022-10-05T08:57:53.521Z,16.80
2022-10-05T09:00:23.649Z,17.05
2022-10-05T09:02:59.819Z,16.93
2022-10-05T09:05:56.534Z,16.51
2022-10-05T09:08:49.221Z,16.54
2022-10-05T09:11:51.655Z,16.48
2022-10-05T09:15:07.135Z,16.98
2022-10-05T09:18:15.053Z,17.09
2022-10-05T09:20:53.195Z,17.25
2022-10-05T09:23:42.990Z,16.88
2022-10-05T09:26:44.609Z,16.93
2022-10-05T09:29:42.571Z,16.81
2022-10-05T09:32:25.175Z,16.83
2022-10-05T09:35:01.544Z,16.69
2022-10-05T09:37:49.509Z,17.03
2022-10-05T09:40:22.763Z,17.44
2022-10-05T09:43:05.002Z,17.77
2022-10-05T09:45:53.685Z,17.87
2022-10-05T09:48:37.763Z,18.14
2022-10-05T09:51:23.348Z,18.22
2022-10-05T09:54:20.116Z,18.74
2022-10-05T09:57:08.907Z,18.85
2022-10-05T09:59:42.390Z,19.08
2022-10-05T10:02:26.613Z,18.67
2022-10-05T10:05:31.633Z,18.44
2022-10-05T10:08:25.138Z,18.12
2022-10-05T10:11:08.667Z,17.81
2022-10-05T10:13:45.762Z,17.40
2022-10-05T10:16:27.322Z,17.18
2022-10-05T10:19:26.962Z,17.00
2022-10-05T10:22:01.898Z,16.96
2022-10-05T10:24:47.785Z,17.00
2022-10-05T10:27:17.973Z,16.70
2022-10-05T10:30:06.881Z,17.31
2022-10-05T10:32:51.622Z,17.96
2022-10-05T10:35:43.742Z,18.35
2022-10-05T10:38:22.435Z,18.57
2022-10-05T10:41:11.622Z,18.55
2022-10-05T10:43:41.195Z,18.57
2022-10-05T10:46:26.395Z,18.72
2022-10-05T10:49:10.599Z,18.96
2022-10-05T10:52:12.552Z,19.06
2022-10-05T10:55:11.020Z,19.23
2022-10-05T10:58:02.344Z,19.44
2022-10-05T11:00:50.060Z,19.18
2022-10-05T11:03:29.459Z,19.36
2022-10-05T11:06:17.337Z,19.51
2022-10-05T11:09:09.790Z,19.57
2022-10-05T11:11:59.017Z,19.41
2022-10-05T11:14:53.191Z,19.41
2022-10-05T11:17:31.856Z,19.29
2022-10-05T11:20:25.758Z,19.46
2022-10-05T11:23:40.858Z,19.65
2022-10-05T11:26:20.160Z,19.73
2022-10-05T11:28:56.368Z,19.64
2022-10-05T11:31:53.579Z,19.59
2022-10-05T11:34:54.672Z,19.50
2022-10-05T11:37:48.984Z,19.64
2022-10-05T11:40:49.806Z,19.93
2022-10-05T11:43:20.009Z,19.83
2022-10-05T11:45:50.025Z,19.98
2022-10-05T11:48:42.723Z,19.91
2022-10-05T11:51:29.670Z,20.12
2022-10-05T11:54:18.048Z,20.07
2022-10-05T11:57:06.484Z,19.99
2022-10-05T11:59:51.207Z,20.19
2022-10-05T12:02:56.407Z,20.38
2022-10-05T12:05:49.228Z,20.45
2022-10-05T12:08:28.770Z,20.28
2022-10-05T12:11:14.491Z,20.29
2022-10-05T12:13:56.086Z,20.13
2022-10-05T12:16:28.885Z,20.07
2022-10-05T12:19:03.385Z,19.98
2022-10-05T12:21:43.491Z,20.00
2022-10-05T12:24:28.662Z,19.82
2022-10-05T12:27:01.140Z,19.69
2022-10-05T12:29:49.477Z,19.65
2022-10-05T12:32:17.825Z,19.70
2022-10-05T12:34:45.058Z,19.70
2022-10-05T12:37:24.402Z,19.64
2022-10-05T12:40:02.678Z,19.79
2022-10-05T12:42:40.881Z,19.88
2022-10-05T12:45:19.977Z,19.82
2022-10-05T12:47:53.663Z,19.94
2022-10-05T12:50:30.673Z,20.03
2022-10-05T12:53:22.534Z,19.90
2022-10-05T12:56:10.151Z,19.90
2022-10-05T12:58:51.263Z,20.01
2022-10-05T13:01:34.389Z,19.96
2022-10-05T13:04:17.550Z,19.86
2022-10-05T13:06:56.372Z,19.83
2022-10-05T13:09:32.117Z,19.77
2022-10-05T13:12:08.279Z,19.98
2022-10-05T13:15:07.502Z,20.05
2022-10-05T13:17:46.092Z,20.05
2022-10-05T13:20:22.772Z,19.94
2022-10-05T13:23:08.381Z,19.97
2022-10-05T13:25:40.188Z,19.86
2022-10-05T13:28:15.500Z,19.84
2022-10-05T13:30:57.158Z,19.88
2022-10-05T13:33:43.228Z,19.78
2022-10-05T13:36:25.585Z,19.63
2022-10-05T13:39:05.786Z,19.61
2022-10-05T13:41:55.206Z,19.66
2022-10-05T13:44:30.823Z,19.60
2022-10-05T13:47:03.860Z,19.62
2022-10-05T13:49:55.486Z,19.58
2022-10-05T13:52:50.875Z,19.43
2022-10-05T13:55:38.035Z,19.40
2022-10-05T13:58:12.161Z,19.41
2022-10-05T14:01:09.306Z,19.34
2022-10-05T14:03:38.198Z,19.28
2022-10-05T14:06:12.768Z,19.24
2022-10-05T14:08:52.562Z,19.29
2022-10-05T14:11:47.335Z,19.23
2022-10-05T14:14:25.746Z,19.23
2022-10-05T14:16:55.948Z,19.16
2022-10-05T14:19:48.308Z,19.06
2022-10-05T14:22:22.833Z,19.05
2022-10-05T14:25:22.123Z,18.99
2022-10-05T14:27:58.273Z,18.97
2022-10-05T14:30:31.079Z,18.95
2022-10-05T14:33:04.055Z,18.94
2022-10-05T14:35:44.034Z,18.87
2022-10-05T14:38:20.479Z,18.79
2022-10-05T14:41:14.843Z,18.77
2022-10-05T14:44:09.231Z,18.70
2022-10-05T14:46:37.626Z,18.66
2022-10-05T14:49:21.756Z,18.63
2022-10-05T14:51:53.518Z,18.57
2022-10-05T14:54:23.826Z,18.57
2022-10-05T14:56:58.929Z,18.47
2022-10-05T14:59:43.842Z,18.41
2022-10-05T15:02:29.275Z,18.34
2022-10-05T15:05:16.497Z,18.33
2022-10-05T15:07:47.883Z,18.26
2022-10-05T15:10:29.735Z,18.20
2022-10-05T15:13:11.835Z,18.14
2022-10-05T15:15:45.164Z,18.05
2022-10-05T15:18:39.644Z,18.03
2022-10-05T15:21:33.151Z,17.93
2022-10-05T15:24:24.423Z,17.78
2022-10-05T15:26:56.621Z,17.76
2022-10-05T15:29:52.021Z,17.75
2022-10-05T15:32:42.259Z,17.65
2022-10-05T15:35:46.207Z,17.60
2022-10-05T15:38:20.933Z,17.50
2022-10-05T15:40:59.818Z,17.41
2022-10-05T15:43:40.066Z,17.34
2022-10-05T15:46:23.457Z,17.32
2022-10-05T15:49:08.575Z,17.20
2022-10-05T15:51:42.378Z,17.08
2022-10-05T15:54:37.306Z,17.00
2022-10-05T15:57:34.137Z,16.95
2022-10-05T16:00:17.665Z,16.92
2022-10-05T16:03:09.629Z,16.92
2022-10-05T16:06:33.736Z,16.73
2022-10-05T16:09:21.460Z,16.78
2022-10-05T16:11:59.164Z,16.70
2022-10-05T16:14:57.469Z,16.64
2022-10-05T16:18:06.137Z,16.52
2022-10-05T16:20:50.077Z,16.46
2022-10-05T16:24:12.278Z,16.43
2022-10-05T16:26:59.533Z,16.39
2022-10-05T16:29:36.133Z,16.21
2022-10-05T16:32:12.702Z,16.13
2022-10-05T16:35:08.815Z,16.04
2022-10-05T16:37:50.741Z,15.87
2022-10-05T16:40:22.874Z,15.79
2022-10-05T16:43:02.091Z,15.69
2022-10-05T16:45:45.717Z,15.66
2022-10-05T16:48:19.793Z,15.61
2022-10-05T16:51:24.499Z,15.54
2022-10-05T16:54:18.335Z,15.43
2022-10-05T16:56:54.835Z,15.34
2022-10-05T16:59:59.496Z,15.28
2022-10-05T17:02:51.159Z,15.16
2022-10-05T17:05:41.445Z,15.05
2022-10-05T17:08:33.738Z,14.95
2022-10-05T17:11:22.426Z,14.89
2022-10-05T17:14:27.261Z,14.88
2022-10-05T17:17:24.424Z,14.83
2022-10-05T17:20:15.731Z,14.78
2022-10-05T17:22:57.891Z,14.75
2022-10-05T17:25:36.677Z,14.74
2022-10-05T17:28:24.251Z,14.62
2022-10-05T17:31:16.300Z,14.61
2022-10-05T17:34:17.372Z,14.50
2022-10-05T17:36:49.703Z,14.38
2022-10-05T17:39:20.287Z,14.32
2022-10-05T17:41:48.433Z,14.29
2022-10-05T17:44:19.358Z,14.19
2022-10-05T17:46:58.649Z,14.12
2022-10-05T17:50:08.988Z,14.07
2022-10-05T17:52:58.778Z,14.08
2022-10-05T17:55:31.689Z,14.03
2022-10-05T17:58:23.180Z,13.98
2022-10-05T18:00:56.906Z,13.91
2022-10-05T18:03:48.345Z,13.89
2022-10-05T18:06:38.185Z,13.95
2022-10-05T18:09:34.098Z,13.92
2022-10-05T18:12:16.780Z,13.92
2022-10-05T18:15:14.106Z,13.97
2022-10-05T18:17:46.445Z,14.05
2022-10-05T18:20:27.357Z,14.18
2022-10-05T18:23:14.826Z,14.07
2022-10-05T18:25:44.962Z,14.06
2022-10-05T18:28:22.780Z,14.00
2022-10-05T18:31:11.874Z,13.93
2022-10-05T18:33:45.416Z,13.95
2022-10-05T18:36:52.467Z,13.86
2022-10-05T18:39:25.976Z,13.95
2022-10-05T18:42:09.043Z,13.92
2022-10-05T18:44:49.589Z,13.90
2022-10-05T18:47:26.057Z,13.89
2022-10-05T18:50:21.658Z,13.87
2022-10-05T18:53:26.582Z,13.90
2022-10-05T18:56:12.153Z,13.90
2022-10-05T18:59:07.785Z,13.85
2022-10-05T19:01:45.633Z,13.81
2022-10-05T19:04:31.203Z,13.81
2022-10-05T19:07:24.929Z,13.83
2022-10-05T19:10:42.402Z,13.80
2022-10-05T19:13:47.275Z,13.78
2022-10-05T19:16:42.206Z,13.70
2022-10-05T19:19:39.079Z,13.65
2022-10-05T19:22:19.315Z,13.61
2022-10-05T19:24:58.119Z,13.55
2022-10-05T19:28:03.149Z,13.54
2022-10-05T19:31:05.025Z,13.44
2022-10-05T19:33:44.759Z,13.35
2022-10-05T19:36:32.416Z,13.26
2022-10-05T19:39:12.156Z,13.19
2022-10-05T19:41:58.340Z,13.11
2022-10-05T19:44:44.534Z,13.03
2022-10-05T19:47:41.111Z,12.93
2022-10-05T19:50:24.230Z,12.86
2022-10-05T19:53:02.444Z,12.81
2022-10-05T19:55:37.377Z,12.79
2022-10-05T19:58:18.807Z,12.73
2022-10-05T20:01:07.027Z,12.67
2022-10-05T20:03:38.025Z,12.60
2022-10-05T20:06:08.475Z,12.55
2022-10-05T20:08:47.517Z,12.48
2022-10-05T20:11:18.965Z,12.42
2022-10-05T20:13:53.363Z,12.35
2022-10-05T20:16:53.297Z,12.29
2022-10-05T20:19:48.361Z,12.22
2022-10-05T20:22:46.474Z,12.13
2022-10-05T20:25:19.908Z,12.11
2022-10-05T20:27:49.898Z,12.06
2022-10-05T20:30:22.877Z,12.01
2022-10-05T20:32:50.694Z,11.96
2022-10-05T20:35:22.461Z,11.92
2022-10-05T20:37:52.684Z,11.94
2022-10-05T20:40:21.332Z,11.95
2022-10-05T20:42:48.321Z,11.93
2022-10-05T20:45:15.672Z,11.99
2022-10-05T20:47:42.937Z,12.00
2022-10-05T20:50:10.841Z,11.94
2022-10-05T20:52:38.395Z,11.98
2022-10-05T20:55:08.810Z,11.94
2022-10-05T20:57:38.796Z,12.01
2022-10-05T21:00:06.523Z,12.04
2022-10-05T21:02:33.506Z,11.96
2022-10-05T21:05:00.671Z,11.90
2022-10-05T21:07:30.684Z,11.87
2022-10-05T21:09:57.668Z,11.87
2022-10-05T21:12:24.821Z,11.81
2022-10-05T21:14:52.798Z,11.76
2022-10-05T21:17:20.352Z,11.69
2022-10-05T21:19:50.667Z,11.71
2022-10-05T21:22:17.718Z,11.72
2022-10-05T21:24:49.897Z,11.74
2022-10-05T21:27:17.141Z,11.69
2022-10-05T21:29:44.863Z,11.68
2022-10-05T21:32:12.083Z,11.70
2022-10-05T21:34:40.362Z,11.72
2022-10-05T21:37:08.290Z,11.69
2022-10-05T21:39:36.654Z,11.61
2022-10-05T21:42:04.531Z,11.52
2022-10-05T21:44:31.573Z,11.45
2022-10-05T21:46:58.631Z,11.40
2022-10-05T21:49:27.022Z,11.38
2022-10-05T21:51:54.676Z,11.31
2022-10-05T21:54:22.855Z,11.24
2022-10-05T21:56:52.622Z,11.19
2022-10-05T21:59:22.298Z,11.16
2022-10-05T22:01:49.352Z,11.09
2022-10-05T22:04:16.675Z,11.08
2022-10-05T22:06:43.749Z,11.06
2022-10-05T22:09:10.983Z,11.09
2022-10-05T22:11:38.465Z,11.13
2022-10-05T22:14:05.464Z,11.13
2022-10-05T22:16:38.683Z,11.04
2022-10-05T22:19:10.956Z,10.97
2022-10-05T22:21:41.683Z,10.97
2022-10-05T22:24:11.748Z,10.99
2022-10-05T22:26:41.250Z,10.96
2022-10-05T22:29:08.120Z,10.91
2022-10-05T22:31:35.608Z,10.88
2022-10-05T22:34:02.697Z,10.86
2022-10-05T22:36:29.604Z,10.91
2022-10-05T22:38:56.742Z,10.85
2022-10-05T22:41:23.756Z,10.77
2022-10-05T22:43:51.418Z,10.78
2022-10-05T22:46:21.306Z,10.67
2022-10-05T22:48:48.258Z,10.60
2022-10-05T22:51:15.741Z,10.56
2022-10-05T22:53:42.836Z,10.47
2022-10-05T22:56:13.819Z,10.41
2022-10-05T22:58:42.029Z,10.36
2022-10-05T23:01:12.418Z,10.31
2022-10-05T23:03:39.982Z,10.25
2022-10-05T23:06:12.506Z,10.19
2022-10-05T23:08:41.032Z,10.16
2022-10-05T23:11:14.161Z,10.12
2022-10-05T23:13:41.890Z,10.08
2022-10-05T23:16:14.009Z,10.05
2022-10-05T23:18:44.286Z,10.06
2022-10-05T23:21:11.844Z,10.03
2022-10-05T23:23:40.976Z,10.06
2022-10-05T23:26:10.081Z,10.00
2022-10-05T23:28:39.958Z,10.07
2022-10-05T23:31:08.248Z,10.06
2022-10-05T23:33:37.597Z,10.01
2022-10-05T23:36:08.402Z,9.93
2022-10-05T23:38:36.128Z,9.84
2022-10-05T23:41:03.858Z,9.77
2022-10-05T23:43:33.285Z,9.74
2022-10-05T23:46:01.138Z,9.74
2022-10-05T23:48:28.607Z,9.70
2022-10-05T23:50:55.923Z,9.67
2022-10-05T23:53:23.016Z,9.68
2022-10-05T23:55:51.593Z,9.75
2022-10-05T23:58:19.582Z,9.81
